createdAt,value
2018-02-17T00:00:48.383Z,1015.86
2018-02-17T00:01:40.620Z,1015.84
2018-02-17T00:03:42.341Z,1015.79
2018-02-17T00:04:22.644Z,1015.8
2018-02-17T00:05:03.085Z,1015.8
2018-02-17T00:05:43.580Z,1015.83
2018-02-17T00:06:23.854Z,1015.79
2018-02-17T00:07:04.274Z,1015.84
2018-02-17T00:07:44.654Z,1015.81
2018-02-17T00:08:25.080Z,1015.76
2018-02-17T00:09:05.471Z,1015.77
2018-02-17T00:09:45.854Z,1015.78
2018-02-17T00:10:26.373Z,1015.83
2018-02-17T00:11:06.750Z,1015.79
2018-02-17T00:11:47.197Z,1015.79
2018-02-17T00:12:27.630Z,1015.79
2018-02-17T00:13:07.995Z,1015.76
2018-02-17T00:13:48.425Z,1015.81
2018-02-17T00:14:28.867Z,1015.76
2018-02-17T00:15:09.246Z,1015.74
2018-02-17T00:15:49.678Z,1015.73
2018-02-17T00:16:30.016Z,1015.66
2018-02-17T00:17:10.443Z,1015.69
2018-02-17T00:17:50.883Z,1015.66
2018-02-17T00:18:31.235Z,1015.68
2018-02-17T00:19:11.624Z,1015.65
2018-02-17T00:19:52.189Z,1015.75
2018-02-17T00:20:32.601Z,1015.73
2018-02-17T00:21:13.017Z,1015.73
2018-02-17T00:21:53.392Z,1015.69
2018-02-17T00:22:33.816Z,1015.66
2018-02-17T00:23:14.235Z,1015.68
2018-02-17T00:23:54.650Z,1015.64
2018-02-17T00:24:35.037Z,1015.68
2018-02-17T00:25:15.454Z,1015.68
2018-02-17T00:25:55.832Z,1015.69
2018-02-17T00:26:36.241Z,1015.68
2018-02-17T00:27:16.657Z,1015.63
2018-02-17T00:27:57.110Z,1015.59
2018-02-17T00:28:37.481Z,1015.64
2018-02-17T00:29:17.872Z,1015.58
2018-02-17T00:29:58.333Z,1015.62
2018-02-17T00:30:38.668Z,1015.68
2018-02-17T00:31:19.148Z,1015.64
2018-02-17T00:31:59.557Z,1015.62
2018-02-17T00:32:40.018Z,1015.6
2018-02-17T00:33:20.502Z,1015.56
2018-02-17T00:34:00.815Z,1015.56
2018-02-17T00:34:41.316Z,1015.58
2018-02-17T00:35:21.694Z,1015.54
2018-02-17T00:36:02.043Z,1015.54
2018-02-17T00:36:42.424Z,1015.52
2018-02-17T00:37:22.827Z,1015.48
2018-02-17T00:38:03.354Z,1015.51
2018-02-17T00:38:43.724Z,1015.51
2018-02-17T00:39:24.463Z,1015.49
2018-02-17T00:40:04.823Z,1015.45
2018-02-17T00:40:45.238Z,1015.39
2018-02-17T00:41:25.772Z,1015.39
2018-02-17T00:42:06.167Z,1015.39
2018-02-17T00:42:46.662Z,1015.39
2018-02-17T00:43:27.191Z,1015.37
2018-02-17T00:44:07.498Z,1015.36
2018-02-17T00:44:47.852Z,1015.37
2018-02-17T00:45:28.340Z,1015.37
2018-02-17T00:46:08.676Z,1015.31
2018-02-17T00:46:49.260Z,1015.32
2018-02-17T00:47:29.539Z,1015.28
2018-02-17T00:48:09.988Z,1015.22
2018-02-17T00:48:50.373Z,1015.24
2018-02-17T00:49:30.704Z,1015.24
2018-02-17T00:50:11.106Z,1015.3
2018-02-17T00:50:51.760Z,1015.31
2018-02-17T00:51:31.998Z,1015.23
2018-02-17T00:52:12.537Z,1015.24
2018-02-17T00:52:52.849Z,1015.28
2018-02-17T00:53:33.250Z,1015.26
2018-02-17T00:54:13.644Z,1015.18
2018-02-17T00:54:54.106Z,1015.16
2018-02-17T00:55:34.566Z,1015.18
2018-02-17T00:56:14.873Z,1015.18
2018-02-17T00:56:55.307Z,1015.13
2018-02-17T00:57:35.709Z,1015.13
2018-02-17T00:58:16.042Z,1015.18
2018-02-17T00:58:56.775Z,1015.19
2018-02-17T00:59:36.923Z,1015.23
2018-02-17T01:00:17.303Z,1015.23
2018-02-17T01:00:57.813Z,1015.18
2018-02-17T01:01:38.027Z,1015.16
2018-02-17T01:02:18.513Z,1015.17
2018-02-17T01:02:58.888Z,1015.15
2018-02-17T01:03:39.257Z,1015.12
2018-02-17T01:04:19.755Z,1015.11
2018-02-17T01:05:00.262Z,1015.09
2018-02-17T01:05:40.543Z,1015.11
2018-02-17T01:06:20.836Z,1015.05
2018-02-17T01:07:01.354Z,1015.03
2018-02-17T01:07:41.730Z,1014.97
2018-02-17T01:08:22.164Z,1014.98
2018-02-17T01:09:02.500Z,1014.92
2018-02-17T01:09:42.852Z,1014.93
2018-02-17T01:10:23.283Z,1014.94
2018-02-17T01:11:03.835Z,1014.89
2018-02-17T01:11:44.206Z,1014.86
2018-02-17T01:12:24.591Z,1014.84
2018-02-17T01:13:05.479Z,1014.84
2018-02-17T01:13:45.646Z,1014.8
2018-02-17T01:14:25.953Z,1014.81
2018-02-17T01:15:06.661Z,1014.82
2018-02-17T01:15:46.901Z,1014.82
2018-02-17T01:16:27.325Z,1014.84
2018-02-17T01:17:07.851Z,1014.82
2018-02-17T01:17:48.359Z,1014.8
2018-02-17T01:18:28.860Z,1014.82
2018-02-17T01:19:09.306Z,1014.79
2018-02-17T01:19:49.605Z,1014.78
2018-02-17T01:20:30.131Z,1014.77
2018-02-17T01:21:10.587Z,1014.75
2018-02-17T01:21:51.020Z,1014.75
2018-02-17T01:22:31.401Z,1014.79
2018-02-17T01:23:12.130Z,1014.76
2018-02-17T01:23:52.655Z,1014.77
2018-02-17T01:24:33.122Z,1014.77
2018-02-17T01:25:13.486Z,1014.76
2018-02-17T01:25:53.843Z,1014.72
2018-02-17T01:26:34.218Z,1014.75
2018-02-17T01:27:14.707Z,1014.72
2018-02-17T01:27:55.089Z,1014.72
2018-02-17T01:28:35.511Z,1014.69
2018-02-17T01:29:15.958Z,1014.71
2018-02-17T01:29:56.277Z,1014.65
2018-02-17T01:30:36.755Z,1014.65
2018-02-17T01:31:17.203Z,1014.7
2018-02-17T01:31:57.535Z,1014.67
2018-02-17T01:32:38.071Z,1014.65
2018-02-17T01:33:18.361Z,1014.66
2018-02-17T01:33:58.784Z,1014.68
2018-02-17T01:34:39.259Z,1014.65
2018-02-17T01:35:19.613Z,1014.66
2018-02-17T01:36:00.182Z,1014.65
2018-02-17T01:36:40.519Z,1014.68
2018-02-17T01:37:21.054Z,1014.63
2018-02-17T01:38:01.626Z,1014.62
2018-02-17T01:38:41.935Z,1014.64
2018-02-17T01:39:22.454Z,1014.64
2018-02-17T01:40:02.841Z,1014.65
2018-02-17T01:40:43.194Z,1014.67
2018-02-17T01:41:23.824Z,1014.7
2018-02-17T01:42:04.234Z,1014.7
2018-02-17T01:42:44.647Z,1014.66
2018-02-17T01:43:25.011Z,1014.67
2018-02-17T01:44:05.435Z,1014.64
2018-02-17T01:44:45.752Z,1014.68
2018-02-17T01:45:26.148Z,1014.67
2018-02-17T01:46:06.601Z,1014.65
2018-02-17T01:46:47.158Z,1014.63
2018-02-17T01:47:27.563Z,1014.66
2018-02-17T01:48:07.964Z,1014.61
2018-02-17T01:48:48.433Z,1014.62
2018-02-17T01:49:28.799Z,1014.63
2018-02-17T01:50:09.289Z,1014.7
2018-02-17T01:50:49.638Z,1014.68
2018-02-17T01:51:30.045Z,1014.7
2018-02-17T01:52:10.542Z,1014.76
2018-02-17T01:52:51.343Z,1014.76
2018-02-17T01:53:31.859Z,1014.8
2018-02-17T01:54:12.125Z,1014.83
2018-02-17T01:54:52.771Z,1014.85
2018-02-17T01:55:33.074Z,1014.84
2018-02-17T01:56:13.494Z,1014.82
2018-02-17T01:56:53.777Z,1014.87
2018-02-17T01:57:34.324Z,1014.85
2018-02-17T01:58:14.668Z,1014.82
2018-02-17T01:58:55.218Z,1014.8
2018-02-17T01:59:35.631Z,1014.79
2018-02-17T02:00:16.131Z,1014.78
2018-02-17T02:00:56.559Z,1014.77
2018-02-17T02:01:37.063Z,1014.78
2018-02-17T02:02:17.478Z,1014.8
2018-02-17T02:02:57.879Z,1014.76
2018-02-17T02:03:38.223Z,1014.74
2018-02-17T02:04:18.701Z,1014.77
2018-02-17T02:04:59.414Z,1014.76
2018-02-17T02:05:39.972Z,1014.71
2018-02-17T02:06:20.366Z,1014.73
2018-02-17T02:07:00.714Z,1014.76
2018-02-17T02:07:41.388Z,1014.72
2018-02-17T02:08:21.808Z,1014.76
2018-02-17T02:09:02.258Z,1014.75
2018-02-17T02:09:42.607Z,1014.76
2018-02-17T02:10:23.131Z,1014.72
2018-02-17T02:11:03.602Z,1014.75
2018-02-17T02:11:43.990Z,1014.71
2018-02-17T02:12:24.291Z,1014.71
2018-02-17T02:13:04.761Z,1014.65
2018-02-17T02:13:45.203Z,1014.66
2018-02-17T02:14:25.567Z,1014.66
2018-02-17T02:15:06.003Z,1014.62
2018-02-17T02:15:46.697Z,1014.58
2018-02-17T02:16:27.180Z,1014.6
2018-02-17T02:17:07.995Z,1014.58
2018-02-17T02:17:48.492Z,1014.55
2018-02-17T02:18:28.947Z,1014.48
2018-02-17T02:19:09.361Z,1014.51
2018-02-17T02:19:49.781Z,1014.5
2018-02-17T02:20:30.197Z,1014.52
2018-02-17T02:21:10.583Z,1014.54
2018-02-17T02:21:50.987Z,1014.55
2018-02-17T02:22:31.434Z,1014.57
2018-02-17T02:23:11.834Z,1014.58
2018-02-17T02:23:52.332Z,1014.58
2018-02-17T02:24:32.877Z,1014.61
2018-02-17T02:25:13.197Z,1014.57
2018-02-17T02:25:53.597Z,1014.58
2018-02-17T02:26:34.133Z,1014.55
2018-02-17T02:27:14.475Z,1014.56
2018-02-17T02:27:54.830Z,1014.57
2018-02-17T02:28:35.361Z,1014.54
2018-02-17T02:29:15.790Z,1014.55
2018-02-17T02:29:56.059Z,1014.53
2018-02-17T02:30:36.771Z,1014.53
2018-02-17T02:31:16.941Z,1014.5
2018-02-17T02:31:57.501Z,1014.52
2018-02-17T02:32:37.823Z,1014.5
2018-02-17T02:33:18.411Z,1014.51
2018-02-17T02:33:58.713Z,1014.5
2018-02-17T02:34:39.273Z,1014.55
2018-02-17T02:35:19.536Z,1014.54
2018-02-17T02:35:59.916Z,1014.56
2018-02-17T02:36:41.013Z,1014.53
2018-02-17T02:37:21.678Z,1014.53
2018-02-17T02:38:01.989Z,1014.57
2018-02-17T02:38:42.475Z,1014.52
2018-02-17T02:39:22.939Z,1014.5
2018-02-17T02:40:03.979Z,1014.54
2018-02-17T02:40:44.701Z,1014.53
2018-02-17T02:41:25.419Z,1014.58
2018-02-17T02:42:05.879Z,1014.55
2018-02-17T02:42:46.102Z,1014.54
2018-02-17T02:43:27.167Z,1014.53
2018-02-17T02:44:07.638Z,1014.5
2018-02-17T02:44:48.139Z,1014.47
2018-02-17T02:45:28.662Z,1014.47
2018-02-17T02:46:09.044Z,1014.49
2018-02-17T02:46:49.441Z,1014.48
2018-02-17T02:47:29.805Z,1014.5
2018-02-17T02:48:10.154Z,1014.49
2018-02-17T02:48:50.693Z,1014.48
2018-02-17T02:49:31.092Z,1014.46
2018-02-17T02:50:11.459Z,1014.45
2018-02-17T02:50:51.912Z,1014.44
2018-02-17T02:51:32.297Z,1014.42
2018-02-17T02:52:12.877Z,1014.43
2018-02-17T02:52:53.246Z,1014.36
2018-02-17T02:53:33.570Z,1014.33
2018-02-17T02:54:14.052Z,1014.35
2018-02-17T02:54:54.412Z,1014.34
2018-02-17T02:55:34.838Z,1014.32
2018-02-17T02:56:15.203Z,1014.29
2018-02-17T02:56:55.612Z,1014.28
2018-02-17T02:57:36.062Z,1014.28
2018-02-17T02:58:16.586Z,1014.28
2018-02-17T02:58:56.924Z,1014.26
2018-02-17T02:59:37.382Z,1014.22
2018-02-17T03:00:17.681Z,1014.23
2018-02-17T03:00:58.148Z,1014.25
2018-02-17T03:01:38.651Z,1014.22
2018-02-17T03:02:19.097Z,1014.25
2018-02-17T03:02:59.430Z,1014.22
2018-02-17T03:03:39.888Z,1014.22
2018-02-17T03:04:20.389Z,1014.19
2018-02-17T03:05:00.820Z,1014.21
2018-02-17T03:05:41.321Z,1014.14
2018-02-17T03:06:21.745Z,1014.17
2018-02-17T03:07:02.202Z,1014.11
2018-02-17T03:07:42.532Z,1014.13
2018-02-17T03:08:23.032Z,1014.07
2018-02-17T03:09:03.391Z,1014.1
2018-02-17T03:09:43.773Z,1014.06
2018-02-17T03:10:24.380Z,1014.06
2018-02-17T03:11:04.958Z,1014.02
2018-02-17T03:11:45.313Z,1013.98
2018-02-17T03:12:25.733Z,1013.97
2018-02-17T03:13:06.121Z,1013.94
2018-02-17T03:13:46.476Z,1013.95
2018-02-17T03:14:26.847Z,1013.89
2018-02-17T03:15:07.262Z,1013.87
2018-02-17T03:15:47.718Z,1013.91
2018-02-17T03:16:28.225Z,1013.93
2018-02-17T03:17:08.574Z,1013.92
2018-02-17T03:17:48.998Z,1013.91
2018-02-17T03:18:29.463Z,1013.93
2018-02-17T03:19:09.927Z,1013.89
2018-02-17T03:19:50.326Z,1013.88
2018-02-17T03:20:30.743Z,1013.89
2018-02-17T03:21:11.117Z,1013.93
2018-02-17T03:21:51.535Z,1013.89
2018-02-17T03:22:32.006Z,1013.87
2018-02-17T03:23:12.336Z,1013.87
2018-02-17T03:23:52.819Z,1013.92
2018-02-17T03:24:33.342Z,1013.91
2018-02-17T03:25:13.807Z,1013.89
2018-02-17T03:25:54.230Z,1013.85
2018-02-17T03:26:34.635Z,1013.83
2018-02-17T03:27:15.227Z,1013.82
2018-02-17T03:27:55.647Z,1013.78
2018-02-17T03:28:36.063Z,1013.78
2018-02-17T03:29:16.501Z,1013.77
2018-02-17T03:29:56.904Z,1013.76
2018-02-17T03:30:37.279Z,1013.72
2018-02-17T03:31:17.725Z,1013.74
2018-02-17T03:31:58.126Z,1013.67
2018-02-17T03:32:38.513Z,1013.73
2018-02-17T03:33:18.933Z,1013.73
2018-02-17T03:33:59.384Z,1013.7
2018-02-17T03:34:39.959Z,1013.68
2018-02-17T03:35:20.332Z,1013.75
2018-02-17T03:36:00.874Z,1013.79
2018-02-17T03:36:41.287Z,1013.76
2018-02-17T03:37:21.646Z,1013.78
2018-02-17T03:38:02.092Z,1013.79
2018-02-17T03:38:42.526Z,1013.81
2018-02-17T03:39:22.978Z,1013.8
2018-02-17T03:40:03.286Z,1013.77
2018-02-17T03:40:43.753Z,1013.81
2018-02-17T03:41:24.179Z,1013.82
2018-02-17T03:42:04.602Z,1013.84
2018-02-17T03:42:44.871Z,1013.81
2018-02-17T03:43:25.297Z,1013.81
2018-02-17T03:44:05.753Z,1013.81
2018-02-17T03:44:46.141Z,1013.82
2018-02-17T03:45:26.494Z,1013.78
2018-02-17T03:46:06.980Z,1013.78
2018-02-17T03:46:47.316Z,1013.73
2018-02-17T03:47:27.688Z,1013.75
2018-02-17T03:48:08.146Z,1013.73
2018-02-17T03:48:48.610Z,1013.75
2018-02-17T03:49:28.941Z,1013.7
2018-02-17T03:50:09.357Z,1013.67
2018-02-17T03:50:49.832Z,1013.69
2018-02-17T03:51:30.253Z,1013.59
2018-02-17T03:52:10.686Z,1013.61
2018-02-17T03:52:51.062Z,1013.6
2018-02-17T03:53:31.521Z,1013.59
2018-02-17T03:54:11.957Z,1013.56
2018-02-17T03:54:52.532Z,1013.61
2018-02-17T03:55:32.963Z,1013.56
2018-02-17T03:56:13.390Z,1013.59
2018-02-17T03:56:53.802Z,1013.57
2018-02-17T03:57:34.234Z,1013.6
2018-02-17T03:58:14.659Z,1013.58
2018-02-17T03:58:55.047Z,1013.56
2018-02-17T03:59:35.495Z,1013.57
2018-02-17T04:00:15.891Z,1013.54
2018-02-17T04:00:56.340Z,1013.5
2018-02-17T04:01:36.700Z,1013.51
2018-02-17T04:02:17.188Z,1013.47
2018-02-17T04:02:57.496Z,1013.45
2018-02-17T04:03:37.975Z,1013.43
2018-02-17T04:04:18.341Z,1013.45
2018-02-17T04:55:54.989Z,1013.03
2018-02-17T04:56:35.739Z,1013.05
2018-02-17T04:57:16.205Z,1013.05
2018-02-17T04:57:56.674Z,1013.07
2018-02-17T04:58:37.899Z,1013.01
2018-02-17T04:59:18.206Z,1013.02
2018-02-17T04:59:58.717Z,1013.04
2018-02-17T05:00:39.312Z,1013.01
2018-02-17T05:01:19.879Z,1013.05
2018-02-17T05:02:00.662Z,1013.06
2018-02-17T05:02:41.445Z,1013.05
2018-02-17T05:03:21.863Z,1013.04
2018-02-17T05:04:03.951Z,1013.03
2018-02-17T05:04:45.441Z,1013.04
2018-02-17T05:05:30.366Z,1013.03
2018-02-17T05:06:10.764Z,1013.06
2018-02-17T05:06:52.523Z,1013.05
2018-02-17T05:07:33.074Z,1013.05
2018-02-17T05:08:13.573Z,1013.07
2018-02-17T05:08:53.929Z,1013.08
2018-02-17T05:09:34.820Z,1013.08
2018-02-17T05:10:15.734Z,1013.1
2018-02-17T05:10:56.447Z,1013.09
2018-02-17T05:11:37.256Z,1013.05
2018-02-17T05:12:17.862Z,1013.07
2018-02-17T05:12:58.242Z,1012.99
2018-02-17T05:13:38.807Z,1013.04
2018-02-17T05:14:19.018Z,1012.99
2018-02-17T05:14:59.562Z,1013
2018-02-17T05:15:39.866Z,1013
2018-02-17T05:16:20.329Z,1012.98
2018-02-17T05:17:00.947Z,1012.95
2018-02-17T05:17:41.398Z,1012.94
2018-02-17T05:18:21.969Z,1012.96
2018-02-17T05:19:02.232Z,1012.96
2018-02-17T05:19:42.747Z,1012.95
2018-02-17T05:20:23.167Z,1012.95
2018-02-17T05:21:03.461Z,1012.96
2018-02-17T05:21:43.971Z,1012.94
2018-02-17T05:22:24.317Z,1012.9
2018-02-17T05:23:04.716Z,1012.93
2018-02-17T05:23:45.137Z,1012.86
2018-02-17T05:24:25.631Z,1012.88
2018-02-17T05:25:06.231Z,1012.81
2018-02-17T05:25:46.729Z,1012.86
2018-02-17T05:26:27.032Z,1012.8
2018-02-17T05:27:07.510Z,1012.77
2018-02-17T05:27:47.923Z,1012.74
2018-02-17T05:28:28.417Z,1012.76
2018-02-17T05:29:08.890Z,1012.73
2018-02-17T05:29:49.299Z,1012.75
2018-02-17T05:30:29.777Z,1012.73
2018-02-17T05:31:10.212Z,1012.75
2018-02-17T05:31:51.003Z,1012.75
2018-02-17T05:32:31.368Z,1012.76
2018-02-17T05:33:11.756Z,1012.77
2018-02-17T05:33:52.295Z,1012.75
2018-02-17T05:34:33.489Z,1012.74
2018-02-17T05:35:13.919Z,1012.71
2018-02-17T05:35:54.317Z,1012.67
2018-02-17T05:36:35.801Z,1012.71
2018-02-17T05:37:15.745Z,1012.7
2018-02-17T05:37:56.763Z,1012.69
2018-02-17T05:38:37.129Z,1012.67
2018-02-17T05:39:17.940Z,1012.66
2018-02-17T05:39:58.279Z,1012.71
2018-02-17T05:40:38.806Z,1012.67
2018-02-17T05:41:19.297Z,1012.68
2018-02-17T05:41:59.549Z,1012.71
2018-02-17T05:42:40.030Z,1012.72
2018-02-17T05:43:20.419Z,1012.7
2018-02-17T05:44:01.088Z,1012.68
2018-02-17T05:44:41.409Z,1012.67
2018-02-17T05:45:21.928Z,1012.66
2018-02-17T05:46:02.355Z,1012.67
2018-02-17T05:46:42.930Z,1012.71
2018-02-17T05:47:23.118Z,1012.69
2018-02-17T05:48:03.528Z,1012.69
2018-02-17T05:48:44.086Z,1012.7
2018-02-17T05:49:26.027Z,1012.67
2018-02-17T05:50:06.587Z,1012.64
2018-02-17T05:50:47.053Z,1012.66
2018-02-17T05:51:27.869Z,1012.61
2018-02-17T05:52:07.907Z,1012.64
2018-02-17T05:52:48.458Z,1012.61
2018-02-17T05:53:29.090Z,1012.61
2018-02-17T05:54:09.371Z,1012.63
2018-02-17T05:54:49.795Z,1012.64
2018-02-17T05:55:31.118Z,1012.64
2018-02-17T05:56:11.325Z,1012.64
2018-02-17T05:56:51.689Z,1012.6
2018-02-17T05:57:33.284Z,1012.6
2018-02-17T05:58:13.542Z,1012.6
2018-02-17T05:58:54.903Z,1012.6
2018-02-17T05:59:35.628Z,1012.57
2018-02-17T06:00:16.805Z,1012.6
2018-02-17T06:00:57.623Z,1012.63
2018-02-17T06:01:39.946Z,1012.54
2018-02-17T06:02:20.346Z,1012.55
2018-02-17T06:03:01.118Z,1012.52
2018-02-17T06:03:41.456Z,1012.55
2018-02-17T06:04:22.217Z,1012.54
2018-02-17T06:05:02.751Z,1012.53
2018-02-17T06:05:43.428Z,1012.57
2018-02-17T06:06:23.751Z,1012.56
2018-02-17T06:07:04.246Z,1012.59
2018-02-17T06:07:44.617Z,1012.62
2018-02-17T06:08:24.949Z,1012.58
2018-02-17T06:09:05.504Z,1012.59
2018-02-17T06:09:45.800Z,1012.53
2018-02-17T06:10:26.181Z,1012.55
2018-02-17T06:11:06.576Z,1012.53
2018-02-17T06:11:46.950Z,1012.51
2018-02-17T06:12:27.508Z,1012.49
2018-02-17T06:13:07.900Z,1012.49
2018-02-17T06:13:48.179Z,1012.51
2018-02-17T06:14:28.585Z,1012.47
2018-02-17T06:15:09.047Z,1012.45
2018-02-17T06:15:49.399Z,1012.46
2018-02-17T06:16:29.821Z,1012.46
2018-02-17T06:17:10.230Z,1012.45
2018-02-17T06:17:50.711Z,1012.45
2018-02-17T06:18:30.989Z,1012.44
2018-02-17T06:19:11.409Z,1012.41
2018-02-17T06:19:52.361Z,1012.4
2018-02-17T06:20:33.483Z,1012.36
2018-02-17T06:21:14.040Z,1012.37
2018-02-17T06:21:54.442Z,1012.31
2018-02-17T06:22:34.830Z,1012.32
2018-02-17T06:23:15.197Z,1012.31
2018-02-17T06:23:55.651Z,1012.29
2018-02-17T06:24:36.116Z,1012.32
2018-02-17T06:25:16.432Z,1012.28
2018-02-17T06:25:56.947Z,1012.28
2018-02-17T06:26:37.306Z,1012.3
2018-02-17T06:27:17.674Z,1012.29
2018-02-17T06:27:58.252Z,1012.28
2018-02-17T06:28:38.623Z,1012.25
2018-02-17T06:29:19.100Z,1012.3
2018-02-17T06:29:59.887Z,1012.28
2018-02-17T06:30:40.212Z,1012.27
2018-02-17T06:31:20.562Z,1012.26
2018-02-17T06:32:00.984Z,1012.28
2018-02-17T06:32:41.334Z,1012.3
2018-02-17T06:33:21.872Z,1012.3
2018-02-17T06:34:02.195Z,1012.34
2018-02-17T06:34:42.701Z,1012.32
2018-02-17T06:35:23.042Z,1012.31
2018-02-17T06:36:03.471Z,1012.29
2018-02-17T06:36:43.912Z,1012.31
2018-02-17T06:37:24.234Z,1012.28
2018-02-17T06:38:04.605Z,1012.26
2018-02-17T06:38:44.985Z,1012.28
2018-02-17T06:39:25.383Z,1012.31
2018-02-17T06:40:05.797Z,1012.3
2018-02-17T06:40:46.217Z,1012.25
2018-02-17T06:41:26.563Z,1012.25
2018-02-17T06:42:06.998Z,1012.24
2018-02-17T06:42:47.426Z,1012.21
2018-02-17T06:43:27.865Z,1012.21
2018-02-17T06:44:08.255Z,1012.19
2018-02-17T06:44:48.690Z,1012.17
2018-02-17T06:45:29.625Z,1012.19
2018-02-17T06:46:10.029Z,1012.14
2018-02-17T06:46:50.415Z,1012.12
2018-02-17T06:47:30.848Z,1012.13
2018-02-17T06:48:11.270Z,1012.11
2018-02-17T06:48:51.663Z,1012.12
2018-02-17T06:49:32.036Z,1012.14
2018-02-17T06:50:12.416Z,1012.13
2018-02-17T06:50:52.883Z,1012.08
2018-02-17T06:51:33.310Z,1012.11
2018-02-17T06:52:13.713Z,1012.11
2018-02-17T06:52:54.022Z,1012.1
2018-02-17T06:53:34.458Z,1012.11
2018-02-17T06:54:14.818Z,1012.08
2018-02-17T06:54:55.230Z,1012.07
2018-02-17T06:55:35.688Z,1012.1
2018-02-17T06:56:16.101Z,1012.11
2018-02-17T06:56:56.485Z,1012.11
2018-02-17T06:57:36.978Z,1012.12
2018-02-17T06:58:17.279Z,1012.15
2018-02-17T06:58:57.704Z,1012.18
2018-02-17T06:59:38.111Z,1012.17
2018-02-17T07:00:18.499Z,1012.2
2018-02-17T07:00:58.950Z,1012.19
2018-02-17T07:01:40.238Z,1012.24
2018-02-17T07:02:20.639Z,1012.24
2018-02-17T07:03:00.987Z,1012.23
2018-02-17T07:03:41.367Z,1012.22
2018-02-17T07:04:21.760Z,1012.18
2018-02-17T07:05:02.197Z,1012.15
2018-02-17T07:05:42.547Z,1012.18
2018-02-17T07:06:23.077Z,1012.2
2018-02-17T07:07:03.505Z,1012.17
2018-02-17T07:07:43.932Z,1012.16
2018-02-17T07:08:24.350Z,1012.16
2018-02-17T07:09:04.664Z,1012.14
2018-02-17T07:09:45.125Z,1012.16
2018-02-17T07:10:25.456Z,1012.16
2018-02-17T07:11:05.833Z,1012.16
2018-02-17T07:11:46.504Z,1012.17
2018-02-17T07:12:26.874Z,1012.16
2018-02-17T07:13:07.219Z,1012.2
2018-02-17T07:13:47.672Z,1012.18
2018-02-17T07:14:28.072Z,1012.17
2018-02-17T07:15:08.543Z,1012.2
2018-02-17T07:15:48.846Z,1012.14
2018-02-17T07:16:29.293Z,1012.17
2018-02-17T07:17:09.697Z,1012.15
2018-02-17T07:17:50.106Z,1012.1
2018-02-17T07:18:30.477Z,1012.11
2018-02-17T07:19:10.872Z,1012.07
2018-02-17T07:19:51.367Z,1012.09
2018-02-17T07:20:31.675Z,1012.07
2018-02-17T07:21:12.099Z,1012.04
2018-02-17T07:21:52.483Z,1012
2018-02-17T07:22:32.908Z,1012.02
2018-02-17T07:23:13.255Z,1012
2018-02-17T07:23:53.766Z,1011.94
2018-02-17T07:24:34.181Z,1012.01
2018-02-17T07:25:14.561Z,1011.99
2018-02-17T07:25:54.999Z,1012.01
2018-02-17T07:26:35.463Z,1012.04
2018-02-17T07:27:15.901Z,1012.04
2018-02-17T07:27:56.367Z,1012.09
2018-02-17T07:28:36.711Z,1012.08
2018-02-17T07:29:17.135Z,1012.08
2018-02-17T07:29:57.613Z,1012.04
2018-02-17T07:30:37.905Z,1012.03
2018-02-17T07:31:18.298Z,1012.03
2018-02-17T07:31:58.766Z,1012.05
2018-02-17T07:32:39.100Z,1012.05
2018-02-17T07:33:19.476Z,1012.03
2018-02-17T07:33:59.907Z,1011.96
2018-02-17T07:34:40.336Z,1012.03
2018-02-17T07:35:20.678Z,1012.1
2018-02-17T07:36:01.142Z,1012.07
2018-02-17T07:36:41.449Z,1012.12
2018-02-17T07:37:21.838Z,1012.12
2018-02-17T07:38:02.384Z,1012.17
2018-02-17T07:38:42.828Z,1012.16
2018-02-17T07:39:23.164Z,1012.18
2018-02-17T07:40:03.574Z,1012.13
2018-02-17T07:40:43.999Z,1012.16
2018-02-17T07:41:24.366Z,1012.15
2018-02-17T07:42:04.766Z,1012.16
2018-02-17T07:42:45.107Z,1012.18
2018-02-17T07:43:25.598Z,1012.16
2018-02-17T07:44:05.996Z,1012.16
2018-02-17T07:44:46.496Z,1012.18
2018-02-17T07:45:27.071Z,1012.16
2018-02-17T07:46:07.535Z,1012.19
2018-02-17T07:46:47.947Z,1012.16
2018-02-17T07:47:28.284Z,1012.21
2018-02-17T07:48:08.672Z,1012.18
2018-02-17T07:48:49.227Z,1012.17
2018-02-17T07:49:29.735Z,1012.15
2018-02-17T07:50:10.038Z,1012.22
2018-02-17T07:50:50.389Z,1012.16
2018-02-17T07:51:31.429Z,1012.15
2018-02-17T07:52:11.219Z,1012.16
2018-02-17T07:52:51.731Z,1012.19
2018-02-17T07:53:32.064Z,1012.18
2018-02-17T07:54:12.425Z,1012.14
2018-02-17T07:54:52.834Z,1012.14
2018-02-17T07:55:33.200Z,1012.11
2018-02-17T07:56:13.606Z,1012.11
2018-02-17T07:56:54.273Z,1012.17
2018-02-17T07:57:34.382Z,1012.16
2018-02-17T07:58:14.828Z,1012.16
2018-02-17T07:58:55.228Z,1012.17
2018-02-17T07:59:35.618Z,1012.17
2018-02-17T08:00:15.992Z,1012.21
2018-02-17T08:00:56.347Z,1012.25
2018-02-17T08:01:36.762Z,1012.25
2018-02-17T08:02:17.183Z,1012.24
2018-02-17T08:02:57.528Z,1012.23
2018-02-17T08:03:37.902Z,1012.21
2018-02-17T08:04:18.279Z,1012.15
2018-02-17T08:04:58.702Z,1012.19
2018-02-17T08:05:39.076Z,1012.18
2018-02-17T08:06:19.531Z,1012.18
2018-02-17T08:06:59.916Z,1012.24
2018-02-17T08:07:40.287Z,1012.2
2018-02-17T08:08:20.712Z,1012.21
2018-02-17T08:09:01.160Z,1012.22
2018-02-17T08:09:41.490Z,1012.23
2018-02-17T08:10:21.922Z,1012.22
2018-02-17T08:11:02.312Z,1012.21
2018-02-17T08:11:42.798Z,1012.21
2018-02-17T08:12:23.204Z,1012.2
2018-02-17T08:13:03.632Z,1012.21
2018-02-17T08:13:44.065Z,1012.18
2018-02-17T08:14:24.437Z,1012.22
2018-02-17T08:15:04.880Z,1012.22
2018-02-17T08:15:45.250Z,1012.2
2018-02-17T08:16:25.678Z,1012.16
2018-02-17T08:17:06.084Z,1012.22
2018-02-17T08:17:46.485Z,1012.2
2018-02-17T08:18:26.903Z,1012.22
2018-02-17T08:19:07.313Z,1012.24
2018-02-17T08:19:47.669Z,1012.23
2018-02-17T08:20:28.101Z,1012.2
2018-02-17T08:21:08.469Z,1012.2
2018-02-17T08:21:48.800Z,1012.18
2018-02-17T08:22:29.166Z,1012.15
2018-02-17T08:23:09.609Z,1012.12
2018-02-17T08:23:49.991Z,1012.1
2018-02-17T08:24:30.446Z,1012.1
2018-02-17T08:25:10.783Z,1012.09
2018-02-17T08:25:51.125Z,1012.07
2018-02-17T08:26:31.540Z,1012.1
2018-02-17T08:27:12.020Z,1012.07
2018-02-17T08:27:52.310Z,1012.09
2018-02-17T08:28:32.737Z,1012.12
2018-02-17T08:29:13.160Z,1012.14
2018-02-17T08:29:53.536Z,1012.12
2018-02-17T08:30:33.919Z,1012.11
2018-02-17T08:31:14.320Z,1012.07
2018-02-17T08:31:54.765Z,1012.08
2018-02-17T08:32:35.170Z,1012.06
2018-02-17T08:33:15.565Z,1012.08
2018-02-17T08:33:55.968Z,1012.08
2018-02-17T08:34:36.419Z,1012.08
2018-02-17T08:35:16.803Z,1012.07
2018-02-17T08:35:57.126Z,1012.08
2018-02-17T08:36:37.544Z,1012.01
2018-02-17T08:37:17.966Z,1012.05
2018-02-17T08:37:58.356Z,1012.07
2018-02-17T08:38:38.811Z,1012.06
2018-02-17T08:39:19.121Z,1012.05
2018-02-17T08:39:59.511Z,1012.07
2018-02-17T08:40:39.927Z,1012.05
2018-02-17T08:41:20.294Z,1012.05
2018-02-17T08:42:00.688Z,1012.06
2018-02-17T08:42:41.023Z,1012.03
2018-02-17T08:43:21.461Z,1012.05
2018-02-17T08:44:01.844Z,1012.05
2018-02-17T08:44:42.292Z,1011.98
2018-02-17T08:45:22.614Z,1011.96
2018-02-17T08:46:03.055Z,1011.98
2018-02-17T08:46:43.419Z,1011.95
2018-02-17T08:47:23.791Z,1011.94
2018-02-17T08:48:04.257Z,1011.96
2018-02-17T08:48:44.701Z,1011.97
2018-02-17T08:49:25.129Z,1011.94
2018-02-17T08:50:05.512Z,1011.97
2018-02-17T08:50:45.924Z,1011.98
2018-02-17T08:51:26.319Z,1012.01
2018-02-17T08:52:06.808Z,1012.03
2018-02-17T08:52:47.170Z,1012.05
2018-02-17T08:53:27.661Z,1012.07
2018-02-17T08:54:08.007Z,1012.03
2018-02-17T08:54:48.502Z,1012.04
2018-02-17T08:55:29.780Z,1012.05
2018-02-17T08:56:10.119Z,1012.07
2018-02-17T08:56:50.654Z,1012.1
2018-02-17T08:57:31.798Z,1012.1
2018-02-17T08:58:12.151Z,1012.1
2018-02-17T08:58:52.568Z,1012.06
2018-02-17T08:59:32.939Z,1012.05
2018-02-17T09:00:13.348Z,1012.06
2018-02-17T09:00:53.718Z,1012.07
2018-02-17T09:01:34.124Z,1012.03
2018-02-17T09:02:14.871Z,1012.06
2018-02-17T09:02:55.154Z,1012.05
2018-02-17T09:03:35.727Z,1012.05
2018-02-17T09:04:16.221Z,1012.04